sensor_id;sensor_type;location;lat;lon;timestamp;pressure;altitude;pressure_sealevel;temperature;humidity
21433;BME280;18592;49.708;10.900;2024-02-21T00:00:12;99508.56;;;13.63;49.93
21433;BME280;18592;49.708;10.900;2024-02-21T00:02:13;99510.75;;;13.61;49.99
21433;BME280;18592;49.708;10.900;2024-02-21T00:04:13;99506.59;;;13.58;50.02
21433;BME280;18592;49.708;10.900;2024-02-21T00:06:14;99504.91;;;13.57;49.86
21433;BME280;18592;49.708;10.900;2024-02-21T00:08:14;99496.97;;;13.56;50.00
21433;BME280;18592;49.708;10.900;2024-02-21T00:10:16;99490.88;;;13.54;50.10
21433;BME280;18592;49.708;10.900;2024-02-21T00:12:16;99494.69;;;13.53;50.24
21433;BME280;18592;49.708;10.900;2024-02-21T00:14:16;99493.03;;;13.52;50.12
21433;BME280;18592;49.708;10.900;2024-02-21T00:16:17;99497.44;;;13.53;50.28
21433;BME280;18592;49.708;10.900;2024-02-21T00:18:17;99485.91;;;13.51;50.42
21433;BME280;18592;49.708;10.900;2024-02-21T00:20:18;99479.81;;;13.49;50.22
21433;BME280;18592;49.708;10.900;2024-02-21T00:22:18;99475.44;;;13.48;50.24
21433;BME280;18592;49.708;10.900;2024-02-21T00:24:18;99469.13;;;13.47;50.22
21433;BME280;18592;49.708;10.900;2024-02-21T00:26:19;99473.75;;;13.47;50.02
21433;BME280;18592;49.708;10.900;2024-02-21T00:28:19;99468.28;;;13.47;50.34
21433;BME280;18592;49.708;10.900;2024-02-21T00:30:20;99465.56;;;13.47;50.72
21433;BME280;18592;49.708;10.900;2024-02-21T00:32:20;99465.81;;;13.45;50.74
21433;BME280;18592;49.708;10.900;2024-02-21T00:34:21;99463.28;;;13.44;50.90
21433;BME280;18592;49.708;10.900;2024-02-21T00:36:21;99459.22;;;13.46;50.91
21433;BME280;18592;49.708;10.900;2024-02-21T00:38:36;99458.66;;;13.44;50.73
21433;BME280;18592;49.708;10.900;2024-02-21T00:40:37;99455.09;;;13.44;50.88
21433;BME280;18592;49.708;10.900;2024-02-21T00:42:37;99454.28;;;13.43;50.87
21433;BME280;18592;49.708;10.900;2024-02-21T00:44:38;99458.66;;;13.44;50.70
21433;BME280;18592;49.708;10.900;2024-02-21T00:46:38;99459.75;;;13.43;50.78
21433;BME280;18592;49.708;10.900;2024-02-21T00:48:39;99452.59;;;13.42;50.81
21433;BME280;18592;49.708;10.900;2024-02-21T00:50:39;99445.22;;;13.43;50.91
21433;BME280;18592;49.708;10.900;2024-02-21T00:52:39;99445.22;;;13.43;50.71
21433;BME280;18592;49.708;10.900;2024-02-21T00:54:43;99450.94;;;13.41;50.77
21433;BME280;18592;49.708;10.900;2024-02-21T00:56:44;99441.91;;;13.41;50.71
21433;BME280;18592;49.708;10.900;2024-02-21T00:58:44;99442.97;;;13.40;50.70
21433;BME280;18592;49.708;10.900;2024-02-21T01:00:44;99445.72;;;13.40;50.72
21433;BME280;18592;49.708;10.900;2024-02-21T01:02:52;99455.00;;;13.38;50.64
21433;BME280;18592;49.708;10.900;2024-02-21T01:04:54;99447.03;;;13.37;50.46
21433;BME280;18592;49.708;10.900;2024-02-21T01:07:04;99442.63;;;13.36;50.46
21433;BME280;18592;49.708;10.900;2024-02-21T01:09:04;99438.25;;;13.35;50.42
21433;BME280;18592;49.708;10.900;2024-02-21T01:11:05;99438.47;;;13.33;50.20
21433;BME280;18592;49.708;10.900;2024-02-21T01:13:05;99437.06;;;13.31;50.51
21433;BME280;18592;49.708;10.900;2024-02-21T01:15:07;99432.41;;;13.31;50.51
21433;BME280;18592;49.708;10.900;2024-02-21T01:17:08;99430.78;;;13.30;50.79
21433;BME280;18592;49.708;10.900;2024-02-21T01:19:11;99435.41;;;13.30;50.61
21433;BME280;18592;49.708;10.900;2024-02-21T01:21:12;99434.59;;;13.29;50.68
21433;BME280;18592;49.708;10.900;2024-02-21T01:23:12;99421.94;;;13.28;50.48
21433;BME280;18592;49.708;10.900;2024-02-21T01:25:12;99426.63;;;13.28;50.63
21433;BME280;18592;49.708;10.900;2024-02-21T01:27:13;99424.94;;;13.27;50.62
21433;BME280;18592;49.708;10.900;2024-02-21T01:29:13;99418.63;;;13.26;50.47
21433;BME280;18592;49.708;10.900;2024-02-21T01:31:13;99419.47;;;13.27;50.71
21433;BME280;18592;49.708;10.900;2024-02-21T01:33:15;99412.09;;;13.27;50.68
21433;BME280;18592;49.708;10.900;2024-02-21T01:35:16;99413.16;;;13.26;50.84
21433;BME280;18592;49.708;10.900;2024-02-21T01:37:16;99410.44;;;13.26;50.96
21433;BME280;18592;49.708;10.900;2024-02-21T01:39:16;99412.31;;;13.26;50.96
21433;BME280;18592;49.708;10.900;2024-02-21T01:41:17;99403.31;;;13.25;50.89
21433;BME280;18592;49.708;10.900;2024-02-21T01:43:19;99402.22;;;13.26;51.00
21433;BME280;18592;49.708;10.900;2024-02-21T01:45:20;99395.09;;;13.25;50.96
21433;BME280;18592;49.708;10.900;2024-02-21T01:47:21;99404.09;;;13.26;51.21
21433;BME280;18592;49.708;10.900;2024-02-21T01:49:21;99395.91;;;13.26;51.18
21433;BME280;18592;49.708;10.900;2024-02-21T01:51:23;99397.56;;;13.27;51.12
21433;BME280;18592;49.708;10.900;2024-02-21T01:53:34;99392.09;;;13.27;51.17
21433;BME280;18592;49.708;10.900;2024-02-21T01:55:35;99392.94;;;13.27;50.92
21433;BME280;18592;49.708;10.900;2024-02-21T01:57:36;99391.25;;;13.26;50.86
21433;BME280;18592;49.708;10.900;2024-02-21T01:59:38;99387.94;;;13.24;50.79
21433;BME280;18592;49.708;10.900;2024-02-21T02:01:39;99385.22;;;13.24;50.97
21433;BME280;18592;49.708;10.900;2024-02-21T02:03:40;99393.16;;;13.26;51.02
21433;BME280;18592;49.708;10.900;2024-02-21T02:05:40;99386.28;;;13.23;51.15
21433;BME280;18592;49.708;10.900;2024-02-21T02:07:56;99390.69;;;13.24;51.05
21433;BME280;18592;49.708;10.900;2024-02-21T02:09:56;99384.16;;;13.25;51.20
21433;BME280;18592;49.708;10.900;2024-02-21T02:11:56;99378.66;;;13.25;51.21
21433;BME280;18592;49.708;10.900;2024-02-21T02:13:58;99379.72;;;13.24;51.30
21433;BME280;18592;49.708;10.900;2024-02-21T02:15:59;99379.47;;;13.26;51.21
21433;BME280;18592;49.708;10.900;2024-02-21T02:17:59;99374.00;;;13.26;51.01
21433;BME280;18592;49.708;10.900;2024-02-21T02:19:59;99378.66;;;13.25;51.39
21433;BME280;18592;49.708;10.900;2024-02-21T02:22:15;99375.31;;;13.23;51.17
21433;BME280;18592;49.708;10.900;2024-02-21T02:24:20;99375.09;;;13.25;51.03
21433;BME280;18592;49.708;10.900;2024-02-21T02:26:23;99372.34;;;13.25;51.20
21433;BME280;18592;49.708;10.900;2024-02-21T02:28:24;99363.31;;;13.24;51.22
21433;BME280;18592;49.708;10.900;2024-02-21T02:30:24;99360.56;;;13.24;51.17
21433;BME280;18592;49.708;10.900;2024-02-21T02:32:25;99355.09;;;13.24;51.22
21433;BME280;18592;49.708;10.900;2024-02-21T02:34:30;99354.25;;;13.24;51.16
21433;BME280;18592;49.708;10.900;2024-02-21T02:36:34;99351.78;;;13.22;51.06
21433;BME280;18592;49.708;10.900;2024-02-21T02:38:34;99347.94;;;13.23;51.18
21433;BME280;18592;49.708;10.900;2024-02-21T02:40:35;99342.47;;;13.23;51.24
21433;BME280;18592;49.708;10.900;2024-02-21T02:42:50;99337.00;;;13.23;51.20
21433;BME280;18592;49.708;10.900;2024-02-21T02:44:51;99339.16;;;13.21;51.20
21433;BME280;18592;49.708;10.900;2024-02-21T02:46:51;99336.19;;;13.23;51.14
21433;BME280;18592;49.708;10.900;2024-02-21T02:48:52;99334.78;;;13.20;51.04
21433;BME280;18592;49.708;10.900;2024-02-21T02:50:52;99331.19;;;13.20;51.05
21433;BME280;18592;49.708;10.900;2024-02-21T02:52:53;99324.88;;;13.19;51.30
21433;BME280;18592;49.708;10.900;2024-02-21T02:54:54;99320.25;;;13.20;51.29
21433;BME280;18592;49.708;10.900;2024-02-21T02:56:56;99324.88;;;13.19;51.22
21433;BME280;18592;49.708;10.900;2024-02-21T02:58:56;99324.88;;;13.19;51.21
21433;BME280;18592;49.708;10.900;2024-02-21T03:00:57;99324.06;;;13.19;51.25
21433;BME280;18592;49.708;10.900;2024-02-21T03:02:57;99327.63;;;13.19;51.19
21433;BME280;18592;49.708;10.900;2024-02-21T03:04:57;99323.22;;;13.18;51.53
21433;BME280;18592;49.708;10.900;2024-02-21T03:06:58;99326.78;;;13.19;51.26
21433;BME280;18592;49.708;10.900;2024-02-21T03:08:58;99326.78;;;13.19;51.50
21433;BME280;18592;49.708;10.900;2024-02-21T03:11:00;99319.69;;;13.18;51.47
21433;BME280;18592;49.708;10.900;2024-02-21T03:13:00;99304.31;;;13.17;51.46
21433;BME280;18592;49.708;10.900;2024-02-21T03:15:01;99314.19;;;13.18;51.38
21433;BME280;18592;49.708;10.900;2024-02-21T03:17:02;99301.31;;;13.18;51.88
21433;BME280;18592;49.708;10.900;2024-02-21T03:19:02;99306.78;;;13.18;51.74
21433;BME280;18592;49.708;10.900;2024-02-21T03:21:03;99295.03;;;13.18;51.84
21433;BME280;18592;49.708;10.900;2024-02-21T03:23:04;99298.56;;;13.18;52.24
21433;BME280;18592;49.708;10.900;2024-02-21T03:25:04;99293.09;;;13.18;52.03
21433;BME280;18592;49.708;10.900;2024-02-21T03:27:05;99290.38;;;13.18;52.15
21433;BME280;18592;49.708;10.900;2024-02-21T03:29:05;99285.72;;;13.19;52.33
21433;BME280;18592;49.708;10.900;2024-02-21T03:41:55;99275.47;;;13.86;50.86
21433;BME280;18592;49.708;10.900;2024-02-21T03:43:55;99276.06;;;13.71;51.03
21433;BME280;18592;49.708;10.900;2024-02-21T03:45:55;99294.88;;;13.63;51.35
21433;BME280;18592;49.708;10.900;2024-02-21T03:47:56;99289.84;;;13.55;51.36
21433;BME280;18592;49.708;10.900;2024-02-21T03:50:00;99285.34;;;13.49;51.46
21433;BME280;18592;49.708;10.900;2024-02-21T03:52:00;99288.00;;;13.44;51.44
21433;BME280;18592;49.708;10.900;2024-02-21T03:54:01;99285.81;;;13.41;51.66
21433;BME280;18592;49.708;10.900;2024-02-21T03:56:02;99286.31;;;13.38;51.68
21433;BME280;18592;49.708;10.900;2024-02-21T03:58:04;99292.28;;;13.34;51.77
21433;BME280;18592;49.708;10.900;2024-02-21T04:00:05;99298.00;;;13.33;51.82
21433;BME280;18592;49.708;10.900;2024-02-21T04:02:07;99295.50;;;13.31;51.90
21433;BME280;18592;49.708;10.900;2024-02-21T04:04:09;99308.63;;;13.29;52.10
21433;BME280;18592;49.708;10.900;2024-02-21T04:06:10;99305.31;;;13.27;52.01
21433;BME280;18592;49.708;10.900;2024-02-21T04:08:11;99299.00;;;13.27;52.17
21433;BME280;18592;49.708;10.900;2024-02-21T04:10:11;99304.75;;;13.25;52.07
21433;BME280;18592;49.708;10.900;2024-02-21T04:12:18;99295.91;;;13.23;52.23
21433;BME280;18592;49.708;10.900;2024-02-21T04:14:18;99295.34;;;13.21;52.41
21433;BME280;18592;49.708;10.900;2024-02-21T04:16:32;99287.41;;;13.20;52.30
21433;BME280;18592;49.708;10.900;2024-02-21T04:18:32;99288.47;;;13.19;52.36
21433;BME280;18592;49.708;10.900;2024-02-21T04:20:33;99289.56;;;13.18;52.37
21433;BME280;18592;49.708;10.900;2024-02-21T04:22:34;99288.72;;;13.17;52.38
21433;BME280;18592;49.708;10.900;2024-02-21T04:24:34;99277.78;;;13.17;52.47
21433;BME280;18592;49.708;10.900;2024-02-21T04:26:35;99276.09;;;13.16;52.47
21433;BME280;18592;49.708;10.900;2024-02-21T04:28:35;99269.56;;;13.17;52.41
21433;BME280;18592;49.708;10.900;2024-02-21T04:30:36;99269.00;;;13.15;52.26
21433;BME280;18592;49.708;10.900;2024-02-21T04:32:36;99268.16;;;13.15;52.38
21433;BME280;18592;49.708;10.900;2024-02-21T04:34:41;99264.00;;;13.12;52.50
21433;BME280;18592;49.708;10.900;2024-02-21T04:36:41;99258.53;;;13.12;52.69
21433;BME280;18592;49.708;10.900;2024-02-21T04:38:43;99260.19;;;13.13;52.76
21433;BME280;18592;49.708;10.900;2024-02-21T04:40:44;99263.19;;;13.12;52.85
21433;BME280;18592;49.708;10.900;2024-02-21T04:42:44;99265.91;;;13.12;52.78
21433;BME280;18592;49.708;10.900;2024-02-21T04:44:45;99258.78;;;13.11;52.66
21433;BME280;18592;49.708;10.900;2024-02-21T04:46:45;99255.22;;;13.10;52.90
21433;BME280;18592;49.708;10.900;2024-02-21T04:48:45;99252.22;;;13.12;53.12
21433;BME280;18592;49.708;10.900;2024-02-21T04:50:46;99252.50;;;13.10;52.84
21433;BME280;18592;49.708;10.900;2024-02-21T04:52:46;99244.28;;;13.10;52.91
21433;BME280;18592;49.708;10.900;2024-02-21T04:54:53;99238.19;;;13.08;53.03
21433;BME280;18592;49.708;10.900;2024-02-21T04:56:53;99238.19;;;13.08;53.23
21433;BME280;18592;49.708;10.900;2024-02-21T04:58:54;99231.09;;;13.07;53.03
21433;BME280;18592;49.708;10.900;2024-02-21T05:00:54;99234.88;;;13.06;53.25
21433;BME280;18592;49.708;10.900;2024-02-21T05:02:55;99229.66;;;13.05;53.29
21433;BME280;18592;49.708;10.900;2024-02-21T05:04:57;99235.97;;;13.05;53.14
21433;BME280;18592;49.708;10.900;2024-02-21T05:07:13;99237.03;;;13.04;53.06
21433;BME280;18592;49.708;10.900;2024-02-21T05:09:28;99232.63;;;13.03;53.00
21433;BME280;18592;49.708;10.900;2024-02-21T05:11:28;99230.13;;;13.02;53.06
21433;BME280;18592;49.708;10.900;2024-02-21T05:13:29;99228.47;;;13.01;53.06
21433;BME280;18592;49.708;10.900;2024-02-21T05:15:29;99228.72;;;12.99;52.97
21433;BME280;18592;49.708;10.900;2024-02-21T05:17:29;99229.78;;;12.98;52.94
21433;BME280;18592;49.708;10.900;2024-02-21T05:19:30;99229.78;;;12.98;52.94
21433;BME280;18592;49.708;10.900;2024-02-21T05:21:33;99232.22;;;12.95;53.23
21433;BME280;18592;49.708;10.900;2024-02-21T05:23:41;99227.59;;;12.95;53.26
21433;BME280;18592;49.708;10.900;2024-02-21T05:25:42;99229.50;;;12.95;53.39
21433;BME280;18592;49.708;10.900;2024-02-21T05:27:44;99228.38;;;12.96;53.33
21433;BME280;18592;49.708;10.900;2024-02-21T05:29:45;99225.66;;;12.96;53.42
21433;BME280;18592;49.708;10.900;2024-02-21T05:33:54;99228.09;;;12.92;53.44
21433;BME280;18592;49.708;10.900;2024-02-21T05:35:57;99234.38;;;12.93;53.47
21433;BME280;18592;49.708;10.900;2024-02-21T05:37:58;99228.09;;;12.92;53.46
21433;BME280;18592;49.708;10.900;2024-02-21T05:39:59;99230.81;;;12.92;53.59
21433;BME280;18592;49.708;10.900;2024-02-21T05:41:59;99232.16;;;12.90;53.44
21433;BME280;18592;49.708;10.900;2024-02-21T05:44:00;99224.16;;;12.88;53.64
21433;BME280;18592;49.708;10.900;2024-02-21T05:46:00;99218.97;;;12.87;53.48
21433;BME280;18592;49.708;10.900;2024-02-21T05:48:16;99218.97;;;12.87;53.71
21433;BME280;18592;49.708;10.900;2024-02-21T05:50:16;99214.31;;;12.87;53.63
21433;BME280;18592;49.708;10.900;2024-02-21T05:52:17;99211.59;;;12.87;53.64
21433;BME280;18592;49.708;10.900;2024-02-21T05:54:33;99206.59;;;12.84;53.64
21433;BME280;18592;49.708;10.900;2024-02-21T05:56:34;99210.19;;;12.85;53.72
21433;BME280;18592;49.708;10.900;2024-02-21T05:58:34;99213.16;;;12.83;53.66
21433;BME280;18592;49.708;10.900;2024-02-21T06:00:34;99219.94;;;12.81;53.68
21433;BME280;18592;49.708;10.900;2024-02-21T06:02:35;99216.38;;;12.80;53.85
21433;BME280;18592;49.708;10.900;2024-02-21T06:04:35;99219.38;;;12.79;53.95
21433;BME280;18592;49.708;10.900;2024-02-21T06:06:36;99218.31;;;12.80;54.19
21433;BME280;18592;49.708;10.900;2024-02-21T06:08:36;99220.19;;;12.79;54.11
21433;BME280;18592;49.708;10.900;2024-02-21T06:10:36;99214.72;;;12.79;54.12
21433;BME280;18592;49.708;10.900;2024-02-21T06:12:37;99212.22;;;12.77;54.17
21433;BME280;18592;49.708;10.900;2024-02-21T06:14:40;99211.41;;;12.77;54.28
21433;BME280;18592;49.708;10.900;2024-02-21T06:16:40;99206.19;;;12.75;54.17
21433;BME280;18592;49.708;10.900;2024-02-21T06:18:55;99219.03;;;12.75;54.50
21433;BME280;18592;49.708;10.900;2024-02-21T06:20:57;99212.75;;;12.74;54.26
21433;BME280;18592;49.708;10.900;2024-02-21T06:23:08;99214.06;;;12.72;54.37
21433;BME280;18592;49.708;10.900;2024-02-21T06:25:08;99219.53;;;12.72;54.37
21433;BME280;18592;49.708;10.900;2024-02-21T06:27:09;99219.53;;;12.72;54.15
21433;BME280;18592;49.708;10.900;2024-02-21T06:29:09;99213.47;;;12.70;54.04
21433;BME280;18592;49.708;10.900;2024-02-21T06:31:09;99210.75;;;12.70;53.68
21433;BME280;18592;49.708;10.900;2024-02-21T06:33:10;99211.25;;;12.67;53.89
21433;BME280;18592;49.708;10.900;2024-02-21T06:35:11;99212.06;;;12.67;53.88
21433;BME280;18592;49.708;10.900;2024-02-21T06:37:21;99212.59;;;12.64;54.00
21433;BME280;18592;49.708;10.900;2024-02-21T06:39:21;99206.28;;;12.64;54.13
21433;BME280;18592;49.708;10.900;2024-02-21T06:41:23;99212.81;;;12.63;54.08
21433;BME280;18592;49.708;10.900;2024-02-21T06:43:38;99206.78;;;12.61;54.01
21433;BME280;18592;49.708;10.900;2024-02-21T06:45:39;99208.44;;;12.62;53.61
21433;BME280;18592;49.708;10.900;2024-02-21T06:47:39;99207.59;;;12.61;54.06
21433;BME280;18592;49.708;10.900;2024-02-21T06:49:39;99203.19;;;12.60;53.97
21433;BME280;18592;49.708;10.900;2024-02-21T06:51:43;99199.41;;;12.61;53.89
21433;BME280;18592;49.708;10.900;2024-02-21T06:53:43;99205.94;;;12.60;54.03
21433;BME280;18592;49.708;10.900;2024-02-21T06:55:44;99206.78;;;12.61;53.95
21433;BME280;18592;49.708;10.900;2024-02-21T06:57:44;99205.72;;;12.62;53.91
21433;BME280;18592;49.708;10.900;2024-02-21T06:59:46;99202.72;;;12.63;53.95
21433;BME280;18592;49.708;10.900;2024-02-21T07:02:04;99208.19;;;12.63;53.92
21433;BME280;18592;49.708;10.900;2024-02-21T07:04:04;99211.50;;;12.65;53.90
21433;BME280;18592;49.708;10.900;2024-02-21T07:06:04;99209.59;;;12.66;53.95
21433;BME280;18592;49.708;10.900;2024-02-21T07:08:05;99206.84;;;12.66;53.84
21433;BME280;18592;49.708;10.900;2024-02-21T07:10:06;99204.13;;;12.66;53.90
21433;BME280;18592;49.708;10.900;2024-02-21T07:12:08;99216.72;;;12.67;54.01
21433;BME280;18592;49.708;10.900;2024-02-21T07:14:08;99216.47;;;12.68;53.96
21433;BME280;18592;49.708;10.900;2024-02-21T07:16:08;99215.63;;;12.68;54.04
21433;BME280;18592;49.708;10.900;2024-02-21T07:18:09;99208.25;;;12.68;53.92
21433;BME280;18592;49.708;10.900;2024-02-21T07:20:38;99204.19;;;12.71;53.96
21433;BME280;18592;49.708;10.900;2024-02-21T07:22:39;99199.78;;;12.70;54.01
21433;BME280;18592;49.708;10.900;2024-02-21T07:24:41;99198.72;;;12.71;53.90
21433;BME280;18592;49.708;10.900;2024-02-21T07:26:50;99194.09;;;12.71;53.88
21433;BME280;18592;49.708;10.900;2024-02-21T07:29:01;99191.09;;;12.73;54.10
21433;BME280;18592;49.708;10.900;2024-02-21T07:31:03;99193.59;;;12.74;54.10
21433;BME280;18592;49.708;10.900;2024-02-21T07:33:18;99197.13;;;12.75;54.40
21433;BME280;18592;49.708;10.900;2024-02-21T07:35:27;99199.38;;;12.78;54.36
21433;BME280;18592;49.708;10.900;2024-02-21T07:48:21;99187.69;;;12.99;55.13
21433;BME280;18592;49.708;10.900;2024-02-21T07:50:24;99190.59;;;13.09;55.54
21433;BME280;18592;49.708;10.900;2024-02-21T07:52:25;99181.97;;;13.17;55.64
21433;BME280;18592;49.708;10.900;2024-02-21T07:54:25;99189.47;;;13.27;55.58
21433;BME280;18592;49.708;10.900;2024-02-21T07:56:27;99190.13;;;13.34;55.46
21433;BME280;18592;49.708;10.900;2024-02-21T07:58:27;99186.94;;;13.42;55.31
21433;BME280;18592;49.708;10.900;2024-02-21T08:00:38;99173.88;;;13.49;55.17
21433;BME280;18592;49.708;10.900;2024-02-21T08:02:39;99166.56;;;13.55;55.05
21433;BME280;18592;49.708;10.900;2024-02-21T08:04:53;99158.97;;;13.62;54.88
21433;BME280;18592;49.708;10.900;2024-02-21T08:06:54;99152.47;;;13.68;54.69
21433;BME280;18592;49.708;10.900;2024-02-21T08:08:55;99153.09;;;13.75;54.78
21433;BME280;18592;49.708;10.900;2024-02-21T08:10:57;99147.69;;;13.80;54.77
21433;BME280;18592;49.708;10.900;2024-02-21T08:12:57;99146.06;;;13.84;54.64
21433;BME280;18592;49.708;10.900;2024-02-21T08:14:58;99138.19;;;13.87;54.46
21433;BME280;18592;49.708;10.900;2024-02-21T08:16:58;99141.25;;;13.91;54.45
21433;BME280;18592;49.708;10.900;2024-02-21T08:19:02;99142.38;;;13.95;54.29
21433;BME280;18592;49.708;10.900;2024-02-21T08:21:04;99144.03;;;13.96;54.02
21433;BME280;18592;49.708;10.900;2024-02-21T08:23:04;99143.50;;;13.99;53.96
21433;BME280;18592;49.708;10.900;2024-02-21T08:25:05;99145.72;;;14.02;53.95
21433;BME280;18592;49.708;10.900;2024-02-21T08:27:05;99153.44;;;14.05;53.93
21433;BME280;18592;49.708;10.900;2024-02-21T08:29:06;99154.00;;;14.07;53.61
21433;BME280;18592;49.708;10.900;2024-02-21T08:31:06;99153.75;;;14.09;53.90
21433;BME280;18592;49.708;10.900;2024-02-21T08:33:07;99155.16;;;14.11;53.62
21433;BME280;18592;49.708;10.900;2024-02-21T08:35:07;99158.19;;;14.15;54.01
21433;BME280;18592;49.708;10.900;2024-02-21T08:37:08;99156.84;;;14.17;53.67
21433;BME280;18592;49.708;10.900;2024-02-21T08:39:10;99148.38;;;14.19;53.78
21433;BME280;18592;49.708;10.900;2024-02-21T08:41:11;99149.19;;;14.19;53.77
21433;BME280;18592;49.708;10.900;2024-02-21T08:43:15;99136.88;;;14.22;53.84
21433;BME280;18592;49.708;10.900;2024-02-21T08:45:15;99139.09;;;14.25;53.65
21433;BME280;18592;49.708;10.900;2024-02-21T08:47:16;99129.78;;;14.26;53.67
21433;BME280;18592;49.708;10.900;2024-02-21T08:49:18;99135.81;;;14.28;53.59
21433;BME280;18592;49.708;10.900;2024-02-21T08:51:19;99127.34;;;14.29;53.28
21433;BME280;18592;49.708;10.900;2024-02-21T08:53:20;99136.19;;;14.31;53.30
21433;BME280;18592;49.708;10.900;2024-02-21T08:55:20;99135.91;;;14.33;53.38
21433;BME280;18592;49.708;10.900;2024-02-21T08:57:20;99132.09;;;14.34;52.96
21433;BME280;18592;49.708;10.900;2024-02-21T08:59:29;99129.06;;;14.35;52.88
21433;BME280;18592;49.708;10.900;2024-02-21T09:01:29;99125.50;;;14.35;53.00
21433;BME280;18592;49.708;10.900;2024-02-21T09:03:38;99128.22;;;14.35;52.88
21433;BME280;18592;49.708;10.900;2024-02-21T09:05:52;99130.19;;;14.34;53.09
21433;BME280;18592;49.708;10.900;2024-02-21T09:08:08;99131.81;;;14.35;53.09
21433;BME280;18592;49.708;10.900;2024-02-21T09:10:09;99131.81;;;14.35;52.98
21433;BME280;18592;49.708;10.900;2024-02-21T09:12:09;99124.97;;;14.38;52.91
21433;BME280;18592;49.708;10.900;2024-02-21T09:14:10;99127.47;;;14.39;53.18
21433;BME280;18592;49.708;10.900;2024-02-21T09:16:10;99122.00;;;14.39;52.74
21433;BME280;18592;49.708;10.900;2024-02-21T09:18:10;99126.38;;;14.40;52.71
21433;BME280;18592;49.708;10.900;2024-02-21T09:20:11;99126.94;;;14.42;52.72
21433;BME280;18592;49.708;10.900;2024-02-21T09:22:12;99122.03;;;14.44;52.92
21433;BME280;18592;49.708;10.900;2024-02-21T09:24:12;99129.16;;;14.45;52.61
21433;BME280;18592;49.708;10.900;2024-02-21T09:26:12;99114.34;;;14.46;52.69
21433;BME280;18592;49.708;10.900;2024-02-21T09:28:21;99111.09;;;14.49;52.76
21433;BME280;18592;49.708;10.900;2024-02-21T09:30:21;99110.00;;;14.50;52.87
21433;BME280;18592;49.708;10.900;2024-02-21T09:32:21;99114.69;;;14.55;52.52
21433;BME280;18592;49.708;10.900;2024-02-21T09:34:22;99115.00;;;14.58;52.92
21433;BME280;18592;49.708;10.900;2024-02-21T09:36:22;99112.28;;;14.63;53.13
21433;BME280;18592;49.708;10.900;2024-02-21T09:38:23;99110.09;;;14.66;53.09
21433;BME280;18592;49.708;10.900;2024-02-21T09:40:23;99109.06;;;14.72;53.10
21433;BME280;18592;49.708;10.900;2024-02-21T09:42:34;99103.03;;;14.75;53.03
21433;BME280;18592;49.708;10.900;2024-02-21T09:44:37;99101.97;;;14.81;53.10
21433;BME280;18592;49.708;10.900;2024-02-21T09:46:52;99105.28;;;14.88;52.94
21433;BME280;18592;49.708;10.900;2024-02-21T09:51:22;99098.50;;;15.00;52.96
21433;BME280;18592;49.708;10.900;2024-02-21T09:53:24;99095.53;;;15.07;52.98
21433;BME280;18592;49.708;10.900;2024-02-21T09:55:26;99092.28;;;15.15;53.02
21433;BME280;18592;49.708;10.900;2024-02-21T09:57:27;99077.75;;;15.24;52.89
21433;BME280;18592;49.708;10.900;2024-02-21T09:59:30;99074.22;;;15.34;52.92
21433;BME280;18592;49.708;10.900;2024-02-21T10:01:31;99077.00;;;15.44;53.00
21433;BME280;18592;49.708;10.900;2024-02-21T10:03:33;99069.66;;;15.55;52.72
21433;BME280;18592;49.708;10.900;2024-02-21T10:05:48;99066.41;;;15.68;52.64
21433;BME280;18592;49.708;10.900;2024-02-21T10:07:52;99065.59;;;15.77;52.59
21433;BME280;18592;49.708;10.900;2024-02-21T10:10:06;99054.31;;;15.89;52.63
21433;BME280;18592;49.708;10.900;2024-02-21T10:12:10;99051.31;;;16.01;52.95
21433;BME280;18592;49.708;10.900;2024-02-21T10:14:11;99049.66;;;16.15;53.06
21433;BME280;18592;49.708;10.900;2024-02-21T10:16:11;99052.69;;;16.28;53.08
21433;BME280;18592;49.708;10.900;2024-02-21T10:18:11;99053.25;;;16.40;52.94
21433;BME280;18592;49.708;10.900;2024-02-21T10:20:12;99043.88;;;16.51;52.96
21433;BME280;18592;49.708;10.900;2024-02-21T10:22:15;99044.44;;;16.64;52.91
21433;BME280;18592;49.708;10.900;2024-02-21T10:24:26;99036.41;;;16.72;52.89
21433;BME280;18592;49.708;10.900;2024-02-21T10:26:26;99041.94;;;16.82;52.65
21433;BME280;18592;49.708;10.900;2024-02-21T10:28:26;99041.06;;;16.92;52.52
21433;BME280;18592;49.708;10.900;2024-02-21T10:30:27;99037.44;;;17.01;52.53
21433;BME280;18592;49.708;10.900;2024-02-21T10:32:53;99031.06;;;17.11;52.49
21433;BME280;18592;49.708;10.900;2024-02-21T10:35:04;99026.63;;;17.20;52.24
21433;BME280;18592;49.708;10.900;2024-02-21T10:37:10;99021.88;;;17.31;52.17
21433;BME280;18592;49.708;10.900;2024-02-21T10:39:10;99018.53;;;17.39;52.16
21433;BME280;18592;49.708;10.900;2024-02-21T10:41:13;99019.00;;;17.51;51.91
21433;BME280;18592;49.708;10.900;2024-02-21T10:43:15;99012.09;;;17.58;51.81
21433;BME280;18592;49.708;10.900;2024-02-21T10:45:23;99008.75;;;17.66;51.65
21433;BME280;18592;49.708;10.900;2024-02-21T10:47:25;99003.41;;;17.80;51.46
21433;BME280;18592;49.708;10.900;2024-02-21T10:49:26;99010.53;;;17.86;51.50
21433;BME280;18592;49.708;10.900;2024-02-21T10:51:31;99013.56;;;17.90;50.90
21433;BME280;18592;49.708;10.900;2024-02-21T10:53:40;99006.63;;;17.92;50.83
21433;BME280;18592;49.708;10.900;2024-02-21T10:55:50;99005.53;;;17.93;50.49
21433;BME280;18592;49.708;10.900;2024-02-21T10:57:57;99001.66;;;17.94;50.29
21433;BME280;18592;49.708;10.900;2024-02-21T10:59:59;98993.38;;;17.94;50.09
21433;BME280;18592;49.708;10.900;2024-02-21T11:01:59;98992.28;;;17.95;50.05
21433;BME280;18592;49.708;10.900;2024-02-21T11:04:02;98990.59;;;17.94;49.21
21433;BME280;18592;49.708;10.900;2024-02-21T11:06:03;98993.91;;;17.96;49.60